Time;durP1;ratioP1;P1;durP2;ratioP2;P2;SDS_P1;SDS_P2;PMS_P1;PMS_P2;Temp;Humidity;BMP_temperature;BMP_pressure;BME280_temperature;BME280_humidity;BME280_pressure;Samples;Min_cycle;Max_cycle;Signal;HPM_P1;HPM_P2
2020/12/18 00:02:02;;;;;;;1.42;1.33;;;1.60;90.00;;;;;;5071507;28;20138;-81
2020/12/18 00:04:28;;;;;;;1.80;1.48;;;1.60;90.00;;;;;;5072636;28;20021;-80
2020/12/18 00:06:54;;;;;;;2.17;1.50;;;1.60;89.80;;;;;;5087803;28;20025;-79
2020/12/18 00:09:19;;;;;;;1.33;1.20;;;1.60;89.60;;;;;;5082243;28;20029;-79
2020/12/18 00:11:45;;;;;;;2.05;1.75;;;1.60;89.80;;;;;;5072840;28;20485;-80
2020/12/18 00:14:11;;;;;;;3.63;2.42;;;1.60;89.50;;;;;;5071284;28;20024;-78
2020/12/18 00:16:37;;;;;;;1.92;1.63;;;1.60;89.50;;;;;;5077550;28;20024;-78
2020/12/18 00:19:04;;;;;;;2.22;1.90;;;1.70;89.80;;;;;;5072891;28;20032;-79
2020/12/18 00:21:30;;;;;;;3.83;2.13;;;1.60;89.70;;;;;;5072693;28;20100;-80
2020/12/18 00:23:56;;;;;;;2.72;2.13;;;1.70;89.80;;;;;;5072857;28;20116;-81
2020/12/18 00:26:21;;;;;;;2.17;1.70;;;1.70;89.80;;;;;;5072011;28;20037;-80
2020/12/18 00:28:48;;;;;;;2.80;2.25;;;1.70;90.00;;;;;;5072518;28;20035;-80
2020/12/18 00:31:14;;;;;;;2.53;1.88;;;1.60;90.20;;;;;;5072555;28;20019;-80
2020/12/18 00:33:40;;;;;;;5.65;2.25;;;1.60;90.50;;;;;;5072625;28;20040;-79
2020/12/18 00:36:10;;;;;;;2.13;1.83;;;1.60;90.70;;;;;;5072607;28;20031;-81
2020/12/18 00:38:36;;;;;;;2.58;2.05;;;1.60;90.70;;;;;;5066192;28;20397;-79
2020/12/18 00:41:02;;;;;;;1.90;1.60;;;1.70;90.70;;;;;;5079055;28;20106;-81
2020/12/18 00:43:28;;;;;;;2.67;1.95;;;1.60;90.60;;;;;;5066899;28;20027;-80
2020/12/18 00:45:54;;;;;;;3.72;2.15;;;1.60;90.50;;;;;;5073038;28;20028;-79
2020/12/18 00:48:19;;;;;;;2.30;1.85;;;1.70;90.30;;;;;;5072720;28;20129;-79
2020/12/18 00:50:46;;;;;;;2.33;1.80;;;1.70;90.10;;;;;;5072633;28;20504;-80
2020/12/18 00:53:12;;;;;;;5.43;2.20;;;1.70;90.00;;;;;;5071342;28;20036;-79
2020/12/18 00:55:38;;;;;;;2.42;1.70;;;1.70;89.50;;;;;;5074175;28;20025;-80
2020/12/18 00:58:03;;;;;;;2.00;1.77;;;1.70;89.10;;;;;;5074664;28;20020;-79
2020/12/18 01:00:29;;;;;;;1.80;1.40;;;1.70;89.20;;;;;;5064368;28;20067;-79
2020/12/18 01:02:55;;;;;;;2.15;1.77;;;1.70;89.00;;;;;;5074601;28;20036;-80
2020/12/18 01:05:21;;;;;;;3.42;1.65;;;1.70;89.00;;;;;;5074879;28;20044;-80
2020/12/18 01:07:47;;;;;;;3.42;1.67;;;1.60;89.50;;;;;;5072353;28;20049;-81
2020/12/18 01:10:12;;;;;;;4.15;1.95;;;1.70;89.30;;;;;;5066528;28;20031;-78
2020/12/18 01:12:38;;;;;;;2.60;2.40;;;1.60;89.50;;;;;;5072345;28;20031;-81
2020/12/18 01:15:04;;;;;;;2.60;2.10;;;1.60;89.60;;;;;;5072977;28;20074;-81
2020/12/18 01:17:30;;;;;;;2.33;1.75;;;1.60;89.80;;;;;;5076076;28;20020;-81
2020/12/18 01:19:57;;;;;;;3.28;1.98;;;1.60;90.00;;;;;;5076118;28;20108;-80
2020/12/18 01:22:23;;;;;;;2.72;2.47;;;1.60;89.80;;;;;;5075832;28;20024;-80
2020/12/18 01:24:49;;;;;;;2.00;1.80;;;1.60;89.70;;;;;;5075504;28;20082;-80
2020/12/18 01:27:15;;;;;;;3.67;2.15;;;1.60;89.10;;;;;;5075462;28;20424;-79
2020/12/18 01:29:40;;;;;;;2.85;2.17;;;1.60;88.60;;;;;;5075584;28;20525;-81
2020/12/18 01:32:06;;;;;;;3.17;2.13;;;1.60;88.50;;;;;;5075568;28;20155;-80
2020/12/18 01:34:32;;;;;;;4.32;2.20;;;1.50;87.60;;;;;;5075539;28;20070;-79
2020/12/18 01:36:58;;;;;;;3.90;2.78;;;1.50;87.80;;;;;;5075881;28;20091;-80
2020/12/18 01:39:24;;;;;;;2.42;2.10;;;1.50;87.40;;;;;;5075547;28;20036;-80
2020/12/18 01:41:49;;;;;;;4.38;2.28;;;1.60;87.20;;;;;;5075427;28;20020;-79
2020/12/18 01:44:15;;;;;;;2.90;2.42;;;1.60;87.20;;;;;;5082172;28;20031;-79
2020/12/18 01:46:41;;;;;;;2.95;2.22;;;1.60;87.10;;;;;;5095326;28;20016;-81
2020/12/18 01:49:08;;;;;;;2.85;2.40;;;1.60;86.80;;;;;;5076669;28;20029;-80
2020/12/18 01:51:34;;;;;;;4.00;2.00;;;1.60;86.60;;;;;;5075995;28;20015;-81
2020/12/18 01:54:00;;;;;;;2.53;2.08;;;1.60;86.70;;;;;;5083110;28;20029;-80
2020/12/18 01:56:26;;;;;;;3.80;2.55;;;1.60;86.80;;;;;;5086453;28;20017;-80
2020/12/18 01:58:53;;;;;;;3.20;2.42;;;1.60;86.90;;;;;;5075275;28;20025;-79
2020/12/18 02:01:19;;;;;;;6.13;2.90;;;1.60;87.30;;;;;;5075311;28;20478;-79
2020/12/18 02:03:45;;;;;;;3.63;2.60;;;1.50;87.90;;;;;;5074972;28;20115;-80
2020/12/18 02:06:15;;;;;;;3.30;2.05;;;1.40;88.70;;;;;;5075226;28;20067;-80
2020/12/18 02:08:42;;;;;;;2.22;2.03;;;1.30;89.40;;;;;;5074975;28;20028;-81
2020/12/18 02:11:23;;;;;;;4.32;3.10;;;1.30;89.90;;;;;;5075221;28;20098;-81
2020/12/18 02:13:53;;;;;;;3.92;3.25;;;1.20;90.10;;;;;;5075039;28;20455;-81
2020/12/18 02:16:20;;;;;;;3.35;2.60;;;1.20;90.30;;;;;;5074965;28;20032;-81
2020/12/18 02:18:47;;;;;;;2.97;2.42;;;1.20;90.30;;;;;;5074701;28;20020;-80
2020/12/18 02:21:13;;;;;;;5.88;2.90;;;1.20;90.30;;;;;;5079304;28;20024;-81
2020/12/18 02:23:49;;;;;;;3.53;2.88;;;1.20;90.20;;;;;;5074692;28;20082;-80
2020/12/18 02:26:18;;;;;;;3.08;2.60;;;1.20;90.10;;;;;;5066075;28;20032;-81
2020/12/18 02:28:47;;;;;;;2.75;2.17;;;1.20;90.10;;;;;;5075862;28;20017;-80
2020/12/18 02:31:16;;;;;;;2.33;2.13;;;1.20;89.80;;;;;;5075922;28;20095;-81
2020/12/18 02:33:43;;;;;;;3.50;2.35;;;1.20;88.40;;;;;;5076404;28;20029;-79
2020/12/18 02:36:09;;;;;;;1.90;1.77;;;1.20;87.80;;;;;;5076741;28;20451;-81
2020/12/18 02:38:36;;;;;;;2.78;2.33;;;1.20;86.80;;;;;;5078212;28;20028;-81
2020/12/18 02:41:02;;;;;;;2.17;1.63;;;1.20;86.00;;;;;;5077338;28;20036;-81
2020/12/18 02:43:28;;;;;;;4.18;2.58;;;1.30;86.10;;;;;;5074254;28;20270;-81
2020/12/18 02:45:54;;;;;;;3.38;2.38;;;1.30;84.70;;;;;;5074533;28;20040;-80
2020/12/18 02:48:20;;;;;;;2.67;2.00;;;1.30;84.50;;;;;;5074184;28;20021;-80
2020/12/18 02:50:49;;;;;;;1.83;1.50;;;1.30;84.10;;;;;;5074451;28;20074;-81
2020/12/18 02:53:16;;;;;;;2.88;2.40;;;1.40;83.60;;;;;;5073911;28;20025;-80
2020/12/18 02:55:42;;;;;;;;;;;1.40;83.70;;;;;;5065518;28;20021;-80
2020/12/18 02:58:12;;;;;;;2.78;2.05;;;1.40;83.60;;;;;;5073958;28;19904;-81
2020/12/18 03:00:39;;;;;;;2.83;1.80;;;1.40;82.00;;;;;;5073618;28;20091;-80
2020/12/18 03:03:05;;;;;;;2.03;1.80;;;1.40;81.90;;;;;;5074109;28;20482;-79
2020/12/18 03:05:32;;;;;;;2.40;1.88;;;1.40;81.90;;;;;;5073692;28;20028;-80
2020/12/18 03:07:58;;;;;;;2.53;2.00;;;1.50;81.30;;;;;;5073824;28;20103;-80
2020/12/18 03:10:25;;;;;;;2.15;1.88;;;1.40;80.50;;;;;;5073532;28;20020;-80
2020/12/18 03:12:51;;;;;;;2.25;1.90;;;1.40;80.50;;;;;;5073759;28;20031;-80
2020/12/18 03:15:17;;;;;;;2.30;2.00;;;1.40;80.70;;;;;;5071587;28;20462;-80
2020/12/18 03:17:44;;;;;;;3.05;1.77;;;1.40;81.90;;;;;;5062167;28;20049;-79
2020/12/18 03:20:10;;;;;;;2.78;1.77;;;1.40;80.40;;;;;;5073387;28;20075;-79
2020/12/18 03:22:37;;;;;;;2.65;2.22;;;1.40;80.30;;;;;;5073446;28;20058;-80
2020/12/18 03:25:04;;;;;;;2.38;1.77;;;1.40;80.40;;;;;;5075643;28;20100;-80
2020/12/18 03:27:30;;;;;;;2.63;2.10;;;1.40;80.60;;;;;;5071929;28;20025;-80
2020/12/18 03:29:56;;;;;;;3.03;1.92;;;1.40;80.80;;;;;;5073639;28;20028;-80
2020/12/18 03:32:22;;;;;;;3.70;2.25;;;1.40;80.40;;;;;;5077473;28;20028;-80
2020/12/18 03:34:48;;;;;;;3.58;2.58;;;1.40;80.50;;;;;;5072612;28;20013;-80
2020/12/18 03:37:13;;;;;;;3.95;2.35;;;1.40;80.60;;;;;;5073212;28;20024;-80
2020/12/18 03:39:40;;;;;;;2.30;1.58;;;1.40;80.50;;;;;;5075016;28;20067;-81
2020/12/18 03:42:05;;;;;;;3.13;2.30;;;1.40;80.30;;;;;;5092588;28;20402;-78
2020/12/18 03:44:31;;;;;;;2.83;2.63;;;1.40;80.40;;;;;;5085684;28;20023;-80
2020/12/18 03:46:57;;;;;;;2.50;2.30;;;1.40;80.30;;;;;;5083745;28;20107;-80
2020/12/18 03:49:23;;;;;;;2.63;2.17;;;1.40;80.40;;;;;;5091172;28;20421;-81
2020/12/18 03:51:49;;;;;;;2.30;1.90;;;1.40;80.70;;;;;;5077096;28;20031;-80
2020/12/18 03:54:14;;;;;;;3.28;2.05;;;1.50;80.70;;;;;;5075022;28;20028;-78
2020/12/18 03:56:40;;;;;;;3.95;2.13;;;1.50;80.50;;;;;;5071687;28;20100;-80
2020/12/18 03:59:06;;;;;;;3.00;2.25;;;1.50;80.50;;;;;;5072866;28;20046;-79
2020/12/18 04:01:33;;;;;;;2.47;2.20;;;1.50;80.70;;;;;;5072758;28;20761;-81
2020/12/18 04:03:58;;;;;;;4.87;2.50;;;1.50;80.60;;;;;;5072272;28;20017;-80
2020/12/18 04:06:24;;;;;;;3.05;1.77;;;1.50;79.80;;;;;;5071428;28;20273;-80
2020/12/18 04:08:50;;;;;;;3.10;2.42;;;1.50;79.60;;;;;;5072518;28;20025;-80
2020/12/18 04:11:16;;;;;;;2.10;1.85;;;1.50;79.40;;;;;;5072644;28;20056;-81
2020/12/18 04:13:42;;;;;;;2.55;2.13;;;1.50;79.50;;;;;;5072427;28;20031;-80
2020/12/18 04:16:07;;;;;;;2.17;1.67;;;1.50;79.50;;;;;;5075146;28;20029;-79
2020/12/18 04:18:33;;;;;;;2.15;1.83;;;1.60;79.40;;;;;;5072494;28;20028;-80
2020/12/18 04:20:59;;;;;;;3.85;1.70;;;1.60;79.60;;;;;;5072449;28;20564;-80
2020/12/18 04:23:26;;;;;;;2.22;1.65;;;1.60;78.60;;;;;;5072302;28;20056;-80
2020/12/18 04:25:53;;;;;;;3.10;1.70;;;1.60;78.40;;;;;;5077843;28;20072;-80
2020/12/18 04:28:18;;;;;;;2.15;1.80;;;1.60;78.50;;;;;;5078112;28;20377;-80
2020/12/18 04:30:44;;;;;;;3.72;1.95;;;1.60;78.60;;;;;;5075409;28;20021;-79
2020/12/18 04:33:10;;;;;;;3.50;2.53;;;1.70;78.60;;;;;;5071089;28;20032;-80
2020/12/18 04:35:36;;;;;;;9.77;1.88;;;1.70;78.90;;;;;;5075166;28;20367;-79
2020/12/18 04:38:02;;;;;;;2.55;1.83;;;1.70;77.60;;;;;;5076807;28;20473;-79
2020/12/18 04:40:28;;;;;;;2.45;1.98;;;1.70;77.90;;;;;;5083075;28;20016;-79
2020/12/18 04:42:56;;;;;;;2.15;1.80;;;1.60;78.00;;;;;;5076711;28;20024;-81
2020/12/18 04:45:22;;;;;;;2.47;1.90;;;1.70;77.90;;;;;;5080328;28;20039;-80
2020/12/18 04:47:52;;;;;;;2.63;2.17;;;1.70;78.00;;;;;;5080035;28;20037;-81
2020/12/18 04:50:18;;;;;;;2.20;2.00;;;1.70;77.90;;;;;;5073550;28;20045;-82
2020/12/18 04:52:45;;;;;;;2.10;1.88;;;1.70;78.10;;;;;;5068938;28;20044;-78
2020/12/18 04:55:12;;;;;;;2.67;1.85;;;1.70;78.10;;;;;;5084436;28;20025;-78
2020/12/18 04:57:42;;;;;;;3.38;2.78;;;1.70;78.00;;;;;;5078299;28;20029;-80
2020/12/18 05:00:08;;;;;;;2.60;2.40;;;1.70;78.10;;;;;;5070289;28;20013;-80
2020/12/18 05:02:34;;;;;;;2.72;1.98;;;1.70;78.30;;;;;;5063364;28;20028;-80
2020/12/18 05:05:00;;;;;;;2.53;2.33;;;1.70;78.20;;;;;;5075390;28;20020;-81
2020/12/18 05:07:27;;;;;;;3.80;2.65;;;1.70;78.30;;;;;;5076426;28;20020;-81
2020/12/18 05:09:54;;;;;;;2.60;2.40;;;1.70;78.60;;;;;;5076553;28;20020;-80
2020/12/18 05:12:20;;;;;;;2.93;2.63;;;1.70;78.60;;;;;;5075669;28;20047;-81
2020/12/18 05:14:45;;;;;;;3.00;2.15;;;1.70;78.60;;;;;;5075844;28;20029;-80
2020/12/18 05:17:11;;;;;;;3.03;2.30;;;1.70;78.40;;;;;;5076203;28;20017;-81
2020/12/18 05:19:39;;;;;;;5.45;3.13;;;1.70;78.50;;;;;;5074526;28;20614;-80
2020/12/18 05:22:07;;;;;;;3.17;2.60;;;1.70;78.80;;;;;;5075689;28;20031;-81
2020/12/18 05:24:37;;;;;;;4.28;2.83;;;1.70;78.80;;;;;;5071839;28;20024;-80
2020/12/18 05:27:04;;;;;;;4.13;2.60;;;1.70;78.90;;;;;;5077238;28;20025;-80
2020/12/18 05:29:31;;;;;;;2.83;2.58;;;1.80;78.90;;;;;;5083768;28;20072;-82
2020/12/18 05:32:01;;;;;;;4.95;2.65;;;1.70;78.50;;;;;;5095387;28;20035;-81
2020/12/18 05:34:27;;;;;;;2.30;2.10;;;1.70;78.60;;;;;;5075784;28;20013;-82
2020/12/18 05:36:54;;;;;;;3.88;2.42;;;1.70;78.60;;;;;;5075986;28;20039;-82
2020/12/18 05:39:20;;;;;;;3.47;2.50;;;1.70;78.10;;;;;;5074120;28;20474;-83
2020/12/18 05:41:58;;;;;;;3.13;2.37;;;1.70;78.40;;;;;;5066723;28;20021;-81
2020/12/18 05:44:26;;;;;;;3.40;2.50;;;1.60;78.30;;;;;;5072578;28;20344;-82
2020/12/18 05:46:52;;;;;;;4.10;2.55;;;1.70;78.50;;;;;;5079067;28;20049;-81
2020/12/18 05:49:29;;;;;;;3.70;2.92;;;1.60;78.70;;;;;;5085958;28;20029;-78
2020/12/18 05:51:55;;;;;;;3.15;2.53;;;1.70;79.00;;;;;;5093235;28;20025;-79
2020/12/18 05:54:20;;;;;;;3.30;2.50;;;1.60;78.90;;;;;;5079856;28;20126;-80
2020/12/18 05:56:52;;;;;;;5.22;2.78;;;1.70;79.00;;;;;;5076499;28;20020;-82
2020/12/18 05:59:20;;;;;;;3.42;2.83;;;1.70;79.20;;;;;;5073915;28;20378;-81
2020/12/18 06:01:55;;;;;;;3.65;3.13;;;1.70;79.30;;;;;;5074375;28;20083;-80
2020/12/18 06:04:23;;;;;;;2.47;1.88;;;1.70;79.20;;;;;;5075633;28;20032;-83
2020/12/18 06:06:51;;;;;;;2.55;2.25;;;1.70;78.50;;;;;;5074017;28;20108;-82
2020/12/18 06:09:27;;;;;;;3.15;2.85;;;1.70;78.10;;;;;;5074977;28;20020;-81
2020/12/18 06:11:53;;;;;;;3.53;2.47;;;1.70;78.10;;;;;;5073572;28;20436;-80
2020/12/18 06:14:20;;;;;;;2.67;2.25;;;1.70;78.30;;;;;;5075481;28;20111;-80
2020/12/18 06:16:51;;;;;;;3.20;2.60;;;1.70;78.60;;;;;;5076329;28;20021;-81
2020/12/18 06:19:19;;;;;;;4.78;3.35;;;1.70;78.90;;;;;;5073685;28;20450;-80
2020/12/18 06:21:55;;;;;;;4.00;3.10;;;1.70;79.20;;;;;;5074676;28;20463;-79
2020/12/18 06:24:22;;;;;;;4.20;3.17;;;1.70;79.20;;;;;;5075064;28;20081;-80
2020/12/18 06:26:53;;;;;;;3.45;3.08;;;1.60;79.30;;;;;;5074681;28;20037;-82
2020/12/18 06:29:21;;;;;;;4.43;3.28;;;1.60;79.50;;;;;;5074882;28;20016;-82
2020/12/18 06:31:47;;;;;;;3.22;2.85;;;1.70;79.60;;;;;;5073169;28;20043;-81
2020/12/18 06:34:31;;;;;;;3.90;2.63;;;1.70;79.60;;;;;;5074693;28;20037;-80
2020/12/18 06:36:58;;;;;;;9.35;3.50;;;1.70;79.30;;;;;;5076510;28;20069;-81
2020/12/18 06:39:30;;;;;;;2.95;2.05;;;1.70;79.40;;;;;;5073765;28;20134;-82
2020/12/18 06:42:17;;;;;;;4.53;3.28;;;1.70;79.50;;;;;;5074268;28;20039;-84
2020/12/18 06:44:47;;;;;;;4.95;3.08;;;1.70;79.50;;;;;;5074275;28;20081;-82
2020/12/18 06:47:17;;;;;;;6.20;2.70;;;1.70;79.60;;;;;;5074107;28;20473;-81
2020/12/18 06:50:08;;;;;;;6.00;3.17;;;1.70;79.80;;;;;;5074029;28;20036;-81
2020/12/18 06:52:50;;;;;;;4.22;3.10;;;1.70;80.10;;;;;;5062355;28;20060;-81
2020/12/18 06:55:25;;;;;;;8.07;3.30;;;1.70;80.10;;;;;;5060144;28;20056;-82
2020/12/18 06:58:09;;;;;;;7.18;3.45;;;1.70;80.10;;;;;;5057778;28;20016;-82
2020/12/18 07:00:48;;;;;;;6.10;3.17;;;1.70;80.10;;;;;;5069581;28;20371;-84
2020/12/18 07:03:37;;;;;;;6.93;3.58;;;1.70;80.10;;;;;;5058486;28;20108;-80
2020/12/18 07:06:10;;;;;;;8.63;4.97;;;1.70;80.30;;;;;;5057513;28;20474;-80
2020/12/18 07:08:38;;;;;;;7.68;3.35;;;1.80;80.50;;;;;;5062662;28;20029;-82
2020/12/18 07:11:05;;;;;;;;;;;1.80;79.60;;;;;;5070664;28;20058;-82
2020/12/18 07:13:31;;;;;;;;;;;1.70;79.10;;;;;;5068252;28;19912;-82
2020/12/18 07:16:00;;;;;;;4.65;1.70;;;1.70;78.50;;;;;;5072322;28;19927;-83
2020/12/18 07:18:31;;;;;;;3.20;2.17;;;1.60;78.10;;;;;;5074773;28;20016;-82
2020/12/18 07:21:00;;;;;;;3.63;2.03;;;1.60;78.40;;;;;;5085935;28;20072;-83
2020/12/18 07:23:27;;;;;;;2.10;1.80;;;1.50;78.90;;;;;;5057346;28;20025;-82
2020/12/18 07:25:55;;;;;;;3.80;2.83;;;1.50;79.10;;;;;;5072665;28;20119;-79
2020/12/18 07:28:21;;;;;;;;;;;1.50;79.20;;;;;;5082050;28;20088;-82
2020/12/18 07:30:48;;;;;;;5.65;3.28;;;1.50;79.30;;;;;;5069314;28;19955;-81
2020/12/18 07:33:16;;;;;;;4.57;3.55;;;1.40;79.70;;;;;;5069562;28;20107;-82
2020/12/18 07:35:47;;;;;;;4.18;3.10;;;1.50;80.20;;;;;;5055283;28;20491;-82
2020/12/18 07:38:27;;;;;;;7.63;4.55;;;1.50;80.10;;;;;;5060141;28;20107;-83
2020/12/18 07:40:57;;;;;;;6.10;3.63;;;1.50;80.20;;;;;;5060645;28;20466;-81
2020/12/18 07:43:34;;;;;;;7.78;4.80;;;1.60;80.00;;;;;;5079202;28;20040;-84
2020/12/18 07:46:04;;;;;;;7.40;4.18;;;1.60;79.80;;;;;;5066642;28;20057;-84
2020/12/18 07:48:35;;;;;;;8.57;6.03;;;1.60;79.60;;;;;;5074848;28;20023;-79
2020/12/18 07:51:09;;;;;;;10.57;5.85;;;1.70;79.40;;;;;;5053146;28;20097;-84
2020/12/18 07:53:38;;;;;;;6.57;4.57;;;1.70;79.10;;;;;;5073134;28;20032;-85
2020/12/18 07:56:09;;;;;;;4.15;3.42;;;1.70;78.90;;;;;;5080281;28;20056;-81
2020/12/18 07:59:02;;;;;;;2.45;2.22;;;1.80;78.30;;;;;;5072110;28;20028;-81
2020/12/18 08:01:29;;;;;;;4.78;2.90;;;1.80;77.70;;;;;;5073663;28;20032;-81
2020/12/18 08:04:00;;;;;;;3.92;3.30;;;1.80;77.90;;;;;;5066715;28;20111;-80
2020/12/18 08:06:37;;;;;;;6.53;3.17;;;1.90;77.80;;;;;;5077788;28;20032;-81
2020/12/18 08:09:10;;;;;;;;;;;1.80;77.50;;;;;;5080038;28;20079;-81
2020/12/18 08:11:42;;;;;;;5.68;3.50;;;1.80;77.70;;;;;;5081164;28;20000;-80
2020/12/18 08:14:08;;;;;;;5.30;3.60;;;1.70;77.40;;;;;;5076175;28;20086;-80
2020/12/18 08:16:34;;;;;;;7.65;3.75;;;1.70;77.60;;;;;;5077320;28;20029;-82
2020/12/18 08:19:01;;;;;;;8.52;3.42;;;1.80;77.80;;;;;;5062131;28;20036;-82
2020/12/18 08:21:31;;;;;;;6.25;3.28;;;1.70;78.00;;;;;;5064306;28;20029;-81
2020/12/18 08:24:14;;;;;;;3.13;2.65;;;1.70;78.30;;;;;;5071057;28;20580;-80
2020/12/18 08:26:53;;;;;;;4.75;3.65;;;1.70;78.60;;;;;;5076872;28;20044;-80
2020/12/18 08:29:22;;;;;;;2.75;2.33;;;1.70;78.70;;;;;;5077179;28;20119;-80
2020/12/18 08:31:54;;;;;;;3.47;2.42;;;1.70;78.40;;;;;;5060886;28;20028;-80
2020/12/18 08:34:29;;;;;;;3.08;2.58;;;1.70;78.20;;;;;;5073040;28;20493;-79
2020/12/18 08:36:55;;;;;;;3.15;2.80;;;1.60;78.00;;;;;;5078757;28;20031;-81
2020/12/18 08:39:21;;;;;;;4.28;3.13;;;1.60;78.30;;;;;;5080185;28;20502;-78
2020/12/18 08:41:48;;;;;;;4.60;3.30;;;1.60;78.40;;;;;;5076401;28;20103;-78
2020/12/18 08:44:20;;;;;;;4.95;3.15;;;1.70;78.40;;;;;;5071625;28;20032;-79
2020/12/18 08:46:47;;;;;;;3.50;3.20;;;1.70;78.20;;;;;;5077855;28;20047;-81
2020/12/18 08:49:26;;;;;;;6.68;3.40;;;1.70;78.00;;;;;;5075017;28;20028;-80
2020/12/18 08:51:54;;;;;;;3.85;3.38;;;1.70;77.70;;;;;;5071755;28;20444;-80
2020/12/18 08:54:20;;;;;;;;;;;1.70;78.00;;;;;;5072432;28;20028;-81
2020/12/18 08:56:46;;;;;;;4.80;2.92;;;1.70;78.40;;;;;;5057739;28;19911;-81
2020/12/18 08:59:15;;;;;;;3.00;2.33;;;1.70;78.30;;;;;;5053877;28;20057;-80
2020/12/18 09:01:49;;;;;;;4.35;3.33;;;1.70;78.30;;;;;;5068260;28;20028;-83
2020/12/18 09:04:17;;;;;;;5.22;3.40;;;1.70;78.40;;;;;;5060163;28;20484;-83
2020/12/18 09:06:51;;;;;;;4.53;3.40;;;1.70;78.10;;;;;;5073469;28;20021;-82
2020/12/18 09:09:17;;;;;;;6.55;3.45;;;1.80;78.00;;;;;;5074144;28;20035;-83
2020/12/18 09:11:49;;;;;;;4.10;3.72;;;1.80;77.80;;;;;;5061355;28;20032;-82
2020/12/18 09:14:28;;;;;;;5.53;3.35;;;1.80;77.40;;;;;;5071218;28;20032;-81
2020/12/18 09:16:58;;;;;;;3.83;2.75;;;1.70;77.70;;;;;;5076072;28;20508;-81
2020/12/18 09:19:24;;;;;;;3.67;2.80;;;1.70;77.60;;;;;;5084624;28;20025;-81
2020/12/18 09:21:50;;;;;;;3.90;3.00;;;1.70;77.60;;;;;;5072281;28;20033;-81
2020/12/18 09:24:19;;;;;;;4.55;3.55;;;1.70;77.50;;;;;;5072962;28;20048;-83
2020/12/18 09:26:45;;;;;;;5.70;4.15;;;1.70;77.40;;;;;;5072655;28;20047;-83
2020/12/18 09:29:18;;;;;;;4.43;3.78;;;1.70;77.50;;;;;;5062059;28;20029;-81
2020/12/18 09:31:45;;;;;;;4.80;3.50;;;1.70;77.50;;;;;;5064145;28;20099;-82
2020/12/18 09:34:15;;;;;;;4.03;3.58;;;1.70;77.40;;;;;;5073891;28;20039;-81
2020/12/18 09:36:41;;;;;;;5.72;3.20;;;1.70;77.10;;;;;;5075480;28;20056;-81
2020/12/18 09:39:07;;;;;;;3.30;3.00;;;1.70;77.00;;;;;;5074034;28;20094;-80
2020/12/18 09:41:34;;;;;;;5.13;4.40;;;1.60;77.10;;;;;;5072872;28;20013;-82
2020/12/18 09:44:00;;;;;;;5.80;4.22;;;1.60;77.20;;;;;;5075890;28;20021;-90
2020/12/18 09:46:26;;;;;;;6.25;3.85;;;1.60;77.30;;;;;;5083634;28;20421;-80
2020/12/18 09:48:52;;;;;;;5.28;3.40;;;1.50;77.20;;;;;;5076869;28;20033;-81
2020/12/18 09:51:18;;;;;;;5.38;3.55;;;1.50;77.80;;;;;;5077504;28;20138;-81
2020/12/18 09:53:45;;;;;;;5.47;3.70;;;1.40;77.40;;;;;;5087004;28;20032;-82
2020/12/18 09:56:12;;;;;;;5.20;4.10;;;1.50;77.60;;;;;;5077182;28;20020;-84
2020/12/18 09:58:38;;;;;;;4.20;3.57;;;1.50;77.60;;;;;;5086048;28;20257;-83
2020/12/18 10:01:04;;;;;;;5.95;3.70;;;1.50;77.50;;;;;;5084871;28;20342;-83
2020/12/18 10:03:31;;;;;;;7.47;4.20;;;1.50;77.10;;;;;;5075541;28;20059;-82
2020/12/18 10:05:56;;;;;;;5.13;4.00;;;1.40;77.20;;;;;;5066610;28;20028;-81
2020/12/18 10:08:22;;;;;;;5.05;3.33;;;1.40;77.30;;;;;;5075112;28;20020;-81
2020/12/18 10:10:48;;;;;;;5.95;3.45;;;1.30;77.10;;;;;;5073639;28;20436;-80
2020/12/18 10:13:14;;;;;;;6.05;4.43;;;1.30;77.10;;;;;;5074816;28;20046;-80
2020/12/18 10:15:41;;;;;;;8.00;3.10;;;1.30;77.30;;;;;;5077232;28;20488;-81
2020/12/18 10:18:07;;;;;;;5.28;2.60;;;1.30;77.40;;;;;;5075164;28;20024;-82
2020/12/18 10:20:33;;;;;;;4.63;3.22;;;1.30;77.20;;;;;;5074823;28;20067;-80
2020/12/18 10:22:59;;;;;;;5.13;3.47;;;1.30;77.10;;;;;;5075209;28;20043;-83
2020/12/18 10:25:25;;;;;;;5.80;3.92;;;1.40;77.20;;;;;;5072886;28;21812;-79
2020/12/18 10:27:51;;;;;;;5.45;3.17;;;1.40;77.20;;;;;;5074105;28;20104;-81
2020/12/18 10:30:17;;;;;;;3.88;3.00;;;1.40;76.90;;;;;;5074339;28;20009;-81
2020/12/18 10:32:45;;;;;;;4.55;3.85;;;1.30;76.80;;;;;;5073947;28;20029;-82
2020/12/18 10:35:11;;;;;;;7.97;3.63;;;1.30;76.90;;;;;;5074313;28;20465;-80
2020/12/18 10:37:37;;;;;;;5.13;3.60;;;1.30;76.80;;;;;;5073594;28;20124;-81
2020/12/18 10:40:04;;;;;;;3.72;2.80;;;1.30;76.90;;;;;;5071572;28;20087;-81
2020/12/18 10:42:32;;;;;;;5.72;3.78;;;1.30;76.80;;;;;;5077473;28;20024;-81
2020/12/18 10:44:58;;;;;;;6.47;4.95;;;1.30;77.00;;;;;;5072186;28;20517;-82
2020/12/18 10:47:24;;;;;;;7.93;3.92;;;1.30;77.10;;;;;;5076691;28;20075;-81
2020/12/18 10:49:49;;;;;;;6.20;3.97;;;1.30;77.10;;;;;;5074262;28;20020;-81
2020/12/18 10:52:15;;;;;;;5.78;4.75;;;1.30;77.30;;;;;;5074825;28;20029;-82
2020/12/18 10:54:41;;;;;;;5.82;3.80;;;1.30;77.50;;;;;;5069717;28;20104;-82
2020/12/18 10:57:08;;;;;;;8.90;4.65;;;1.40;77.50;;;;;;5074062;28;20048;-83
2020/12/18 10:59:35;;;;;;;9.57;4.80;;;1.40;77.20;;;;;;5071275;28;20121;-80
2020/12/18 11:02:02;;;;;;;4.57;3.80;;;1.40;77.20;;;;;;5072981;28;20028;-81
2020/12/18 11:04:28;;;;;;;7.60;4.15;;;1.40;77.20;;;;;;5074349;28;20021;-81
2020/12/18 11:06:54;;;;;;;8.13;4.70;;;1.50;77.30;;;;;;5074210;28;20039;-81
2020/12/18 11:09:20;;;;;;;6.40;4.60;;;1.50;77.30;;;;;;5074951;28;20052;-83
2020/12/18 11:11:50;;;;;;;7.18;5.43;;;1.50;77.30;;;;;;5074818;28;20021;-80
2020/12/18 11:14:16;;;;;;;5.32;3.92;;;1.50;77.00;;;;;;5090055;28;20028;-82
2020/12/18 11:16:42;;;;;;;5.32;4.10;;;1.50;77.00;;;;;;5079415;28;20026;-81
2020/12/18 11:19:08;;;;;;;4.40;3.50;;;1.50;76.70;;;;;;5077005;28;20021;-82
2020/12/18 11:21:34;;;;;;;5.10;3.38;;;1.50;76.60;;;;;;5074057;28;20438;-82
2020/12/18 11:24:00;;;;;;;4.45;3.63;;;1.50;76.60;;;;;;5065634;28;20033;-82
2020/12/18 11:26:26;;;;;;;5.90;4.10;;;1.40;76.80;;;;;;5074783;28;20036;-82
2020/12/18 11:28:52;;;;;;;6.18;4.25;;;1.50;77.00;;;;;;5073948;28;20020;-81
2020/12/18 11:31:19;;;;;;;8.82;4.93;;;1.50;76.70;;;;;;5073440;28;20024;-81
2020/12/18 11:33:45;;;;;;;6.97;3.80;;;1.50;76.70;;;;;;5065666;28;20040;-82
2020/12/18 11:36:11;;;;;;;6.40;4.95;;;1.50;76.50;;;;;;5073110;28;20017;-88
2020/12/18 11:38:37;;;;;;;7.43;4.80;;;1.50;76.60;;;;;;5076622;28;20029;-89
2020/12/18 11:41:03;;;;;;;7.10;4.22;;;1.50;76.70;;;;;;5078321;28;20024;-88
2020/12/18 11:43:29;;;;;;;5.80;3.65;;;1.50;76.70;;;;;;5076149;28;20047;-88
2020/12/18 11:45:55;;;;;;;6.88;4.20;;;1.50;76.30;;;;;;5073105;28;20048;-85
2020/12/18 11:48:22;;;;;;;6.40;4.10;;;1.50;76.00;;;;;;5074206;28;20432;-84
2020/12/18 11:50:48;;;;;;;5.05;4.40;;;1.50;76.20;;;;;;5077704;28;20072;-86
2020/12/18 11:53:15;;;;;;;5.63;4.43;;;1.50;76.20;;;;;;5090757;28;20037;-88
2020/12/18 11:55:42;;;;;;;5.70;4.43;;;1.60;76.10;;;;;;5084910;28;20020;-87
2020/12/18 11:58:07;;;;;;;6.05;4.40;;;1.50;76.20;;;;;;5081233;28;20032;-90
2020/12/18 12:00:33;;;;;;;6.68;4.15;;;1.50;76.20;;;;;;5103856;28;20066;-86
2020/12/18 12:02:59;;;;;;;5.28;4.03;;;1.50;76.30;;;;;;5079845;28;20032;-90
2020/12/18 12:05:25;;;;;;;7.30;4.88;;;1.50;76.20;;;;;;5083289;28;20436;-82
2020/12/18 12:07:53;;;;;;;6.95;4.75;;;1.50;76.30;;;;;;5073006;28;20381;-81
2020/12/18 12:10:19;;;;;;;;;;;1.50;76.50;;;;;;5073078;28;20070;-82
2020/12/18 12:12:48;;;;;;;5.82;4.32;;;1.40;76.60;;;;;;5073002;28;19916;-82
2020/12/18 12:15:16;;;;;;;6.45;4.22;;;1.40;76.70;;;;;;5072940;28;20382;-81
2020/12/18 12:17:41;;;;;;;8.60;5.05;;;1.30;76.90;;;;;;5073140;28;20021;-83
2020/12/18 12:20:07;;;;;;;6.82;4.60;;;1.40;77.20;;;;;;5073506;28;20017;-85
2020/12/18 12:22:33;;;;;;;7.13;3.92;;;1.30;77.40;;;;;;5073069;28;20017;-81
2020/12/18 12:24:59;;;;;;;7.55;4.50;;;1.30;77.50;;;;;;5074650;28;20059;-83
2020/12/18 12:27:26;;;;;;;6.63;5.32;;;1.30;77.60;;;;;;5075368;28;20061;-82
2020/12/18 12:29:53;;;;;;;7.10;5.32;;;1.30;77.60;;;;;;5075476;28;20021;-81
2020/12/18 12:32:19;;;;;;;7.43;4.53;;;1.30;77.60;;;;;;5074077;28;20109;-82
2020/12/18 12:34:45;;;;;;;8.02;4.68;;;1.30;77.70;;;;;;5074315;28;20418;-81
2020/12/18 12:37:12;;;;;;;5.07;4.00;;;1.30;77.50;;;;;;5073806;28;20092;-81
2020/12/18 12:39:38;;;;;;;5.15;3.95;;;1.30;77.20;;;;;;5072831;28;20081;-86
2020/12/18 12:42:04;;;;;;;7.82;4.90;;;1.30;77.30;;;;;;5074955;28;20024;-85
2020/12/18 12:44:31;;;;;;;6.78;5.22;;;1.20;77.30;;;;;;5079150;28;20482;-82
2020/12/18 12:46:57;;;;;;;8.43;5.45;;;1.20;77.40;;;;;;5079536;28;20048;-82
2020/12/18 12:49:24;;;;;;;7.68;5.65;;;1.20;77.50;;;;;;5069808;28;20124;-82
2020/12/18 12:51:56;;;;;;;6.50;4.68;;;1.20;77.40;;;;;;5072410;28;20017;-82
2020/12/18 12:54:23;;;;;;;5.63;4.30;;;1.30;77.70;;;;;;5071476;28;20089;-82
2020/12/18 12:56:49;;;;;;;5.15;4.18;;;1.30;77.70;;;;;;5072250;28;20028;-82
2020/12/18 12:59:15;;;;;;;6.43;4.57;;;1.30;77.50;;;;;;5072495;28;20025;-81
2020/12/18 13:01:41;;;;;;;8.00;5.07;;;1.30;77.60;;;;;;5072297;28;20382;-87